Terminal Aerodrome Forecast
Issued by NWS

Home | Current Version | Previous Version | Text Only | Print | Product List | Glossary On
Versions: 1 2 3 4 5 6 7 8 9 10 11 12 13 14 15 16 17 18 19 20 21 22 23 24 25 26 27 28 29 30 31 32 33 34 35 36 37 38 39
000
FTUS43 KMKX 291135
TAFENW
TAF
KENW 291135Z 2912/3012 30006KT P6SM FEW060 SCT090
     FM291500 31009KT P6SM SCT030 SCT080
     FM292000 30007KT P6SM VCTS BKN050CB
     FM300200 25004KT P6SM VCSH SCT060 SCT100
     FM300600 25004KT P6SM SCT060=

USA.gov is the U.S. government's official web portal to all federal, state and local government web resources and services.